Time;durP1;ratioP1;P1;durP2;ratioP2;P2;SDS_P1;SDS_P2;PMS_P1;PMS_P2;Temp;Humidity;BMP_temperature;BMP_pressure;BME280_temperature;BME280_humidity;BME280_pressure;Samples;Min_cycle;Max_cycle;Signal;HPM_P1;HPM_P2
2022/03/03 00:01:28;;;;;;;;;0.00;0.00;19.20;99.90;;;;;;5054964;28;9875;-58
2022/03/03 00:03:59;;;;;;;;;0.00;0.00;19.10;99.90;;;;;;5049292;28;9808;-58
2022/03/03 00:06:30;;;;;;;;;0.00;0.00;19.10;99.90;;;;;;5052762;28;9249;-58
2022/03/03 00:09:04;;;;;;;;;0.00;0.00;19.10;99.90;;;;;;5025390;28;9188;-58
2022/03/03 00:11:35;;;;;;;;;0.00;0.00;19.10;99.90;;;;;;5051394;28;9394;-59
2022/03/03 00:14:06;;;;;;;;;0.00;0.00;19.10;99.90;;;;;;5046373;28;9317;-58
2022/03/03 00:16:37;;;;;;;;;1.00;0.00;19.10;99.90;;;;;;5047023;28;9333;-56
2022/03/03 00:19:08;;;;;;;;;0.00;0.00;19.10;99.90;;;;;;5053745;28;9297;-59
2022/03/03 00:21:40;;;;;;;;;0.00;0.00;19.10;99.90;;;;;;5052135;28;9394;-58
2022/03/03 00:24:11;;;;;;;;;0.00;0.00;19.10;99.90;;;;;;5048755;28;9365;-59
2022/03/03 00:26:42;;;;;;;;;0.00;0.00;19.10;99.90;;;;;;5045961;28;9966;-57
2022/03/03 00:29:17;;;;;;;;;0.00;0.00;19.10;99.90;;;;;;5051424;28;9153;-57
2022/03/03 00:31:48;;;;;;;;;0.00;0.00;19.10;99.90;;;;;;5053576;28;9355;-57
2022/03/03 00:34:18;;;;;;;;;0.00;0.00;19.10;99.90;;;;;;5044218;28;9264;-58
2022/03/03 00:36:50;;;;;;;;;0.00;0.00;19.10;99.90;;;;;;5049484;28;9397;-58
2022/03/03 00:39:20;;;;;;;;;0.00;0.00;19.10;99.90;;;;;;5048015;28;9329;-57
2022/03/03 00:41:52;;;;;;;;;0.00;0.00;19.10;99.90;;;;;;5046791;28;9294;-57
2022/03/03 00:44:23;;;;;;;;;0.00;0.00;19.00;99.90;;;;;;5048450;28;9300;-57
2022/03/03 00:46:55;;;;;;;;;0.00;0.00;19.10;99.90;;;;;;5050437;28;9247;-58
2022/03/03 00:49:26;;;;;;;;;0.00;0.00;19.00;99.90;;;;;;5050722;28;9284;-58
2022/03/03 00:51:57;;;;;;;;;0.00;0.00;19.00;99.90;;;;;;5051522;28;9970;-58
2022/03/03 00:54:27;;;;;;;;;0.00;0.00;18.90;99.90;;;;;;5050226;28;9557;-58
2022/03/03 00:56:59;;;;;;;;;0.00;0.00;18.90;99.90;;;;;;5051911;28;9386;-57
2022/03/03 00:59:31;;;;;;;;;0.00;0.00;18.90;99.90;;;;;;5048744;28;9413;-59
2022/03/03 01:02:02;;;;;;;;;0.00;0.00;18.90;99.90;;;;;;5054383;28;9568;-58
2022/03/03 01:04:35;;;;;;;;;0.00;0.00;18.90;99.90;;;;;;5050086;28;9529;-58
2022/03/03 01:07:08;;;;;;;;;0.00;0.00;18.90;99.90;;;;;;5054980;28;9548;-58
2022/03/03 01:09:38;;;;;;;;;0.00;0.00;18.80;99.90;;;;;;5048873;28;9448;-58
2022/03/03 01:12:11;;;;;;;;;0.00;0.00;18.80;99.90;;;;;;5051808;28;9532;-59
2022/03/03 01:14:41;;;;;;;;;0.00;0.00;18.80;99.90;;;;;;5043192;28;9540;-58
2022/03/03 01:17:16;;;;;;;;;0.00;0.00;18.80;99.90;;;;;;5051543;28;9574;-58
2022/03/03 01:19:46;;;;;;;;;0.00;0.00;18.80;99.90;;;;;;5054787;28;9465;-59
2022/03/03 01:22:16;;;;;;;;;0.00;0.00;18.80;99.90;;;;;;5056273;28;9363;-58
2022/03/03 01:24:48;;;;;;;;;0.00;0.00;18.80;99.90;;;;;;5048069;28;9746;-58
2022/03/03 01:27:19;;;;;;;;;0.00;0.00;18.70;99.90;;;;;;5053704;28;9494;-59
2022/03/03 01:29:50;;;;;;;;;0.00;0.00;18.70;99.90;;;;;;5060229;28;9575;-59
2022/03/03 01:32:21;;;;;;;;;0.00;0.00;18.70;99.90;;;;;;5050712;28;9551;-58
2022/03/03 01:34:53;;;;;;;;;0.00;0.00;18.60;99.90;;;;;;5058030;28;9454;-59
2022/03/03 01:37:23;;;;;;;;;0.00;0.00;18.60;99.90;;;;;;5048022;28;9543;-58
2022/03/03 01:39:54;;;;;;;;;0.00;0.00;18.60;99.90;;;;;;5057143;28;9469;-59
2022/03/03 01:42:25;;;;;;;;;0.00;0.00;18.50;99.90;;;;;;5056502;28;9540;-57
2022/03/03 01:44:55;;;;;;;;;0.00;0.00;18.50;99.90;;;;;;5054686;28;9606;-57
2022/03/03 01:47:29;;;;;;;;;0.00;0.00;18.50;99.90;;;;;;5052836;28;10332;-57
2022/03/03 01:50:00;;;;;;;;;0.00;0.00;18.50;99.90;;;;;;5060688;28;9631;-59
2022/03/03 01:52:32;;;;;;;;;0.00;0.00;18.40;99.90;;;;;;5058996;28;9624;-59
2022/03/03 01:55:05;;;;;;;;;0.00;0.00;18.40;99.90;;;;;;5055921;28;9696;-59
2022/03/03 01:57:38;;;;;;;;;0.00;0.00;18.40;99.90;;;;;;5052527;28;9773;-58
2022/03/03 02:00:09;;;;;;;;;0.00;0.00;18.40;99.90;;;;;;5048419;28;9701;-59
2022/03/03 02:02:40;;;;;;;;;0.00;0.00;18.40;99.90;;;;;;5050511;28;9693;-60
2022/03/03 02:05:12;;;;;;;;;0.00;0.00;18.40;99.90;;;;;;5049007;28;9681;-56
2022/03/03 02:07:43;;;;;;;;;0.00;0.00;18.30;99.90;;;;;;5055791;28;10453;-59
2022/03/03 02:10:15;;;;;;;;;0.75;0.00;18.30;99.90;;;;;;5046234;28;9836;-58
2022/03/03 02:12:45;;;;;;;;;0.00;0.00;18.30;99.90;;;;;;5059740;28;9796;-58
2022/03/03 02:15:21;;;;;;;;;0.00;0.00;18.30;99.90;;;;;;5054496;28;9671;-57
2022/03/03 02:17:53;;;;;;;;;0.00;0.00;18.30;99.90;;;;;;5048939;28;9862;-57
2022/03/03 02:20:29;;;;;;;;;0.75;0.75;18.30;99.90;;;;;;5045975;28;10215;-58
2022/03/03 02:23:01;;;;;;;;;0.25;0.25;18.20;99.90;;;;;;5049768;28;10095;-56
2022/03/03 02:25:31;;;;;;;;;1.25;0.75;18.20;99.90;;;;;;5046582;28;10238;-56
2022/03/03 02:32:28;;;;;;;;;0.00;0.00;18.10;99.90;;;;;;5071506;28;10058;-56
2022/03/03 02:34:59;;;;;;;;;0.00;0.00;18.10;99.90;;;;;;5051517;28;9763;-56
2022/03/03 02:37:39;;;;;;;;;0.00;0.00;18.10;99.90;;;;;;5045234;28;9868;-54
2022/03/03 02:40:13;;;;;;;;;0.00;0.00;18.00;99.90;;;;;;5051009;28;9911;-56
2022/03/03 02:42:47;;;;;;;;;0.00;0.00;18.00;99.90;;;;;;5050064;28;9870;-57
2022/03/03 02:45:20;;;;;;;;;0.00;0.00;18.00;99.90;;;;;;5046751;28;9922;-57
2022/03/03 02:47:52;;;;;;;;;0.00;0.00;18.00;99.90;;;;;;5049574;28;9923;-57
2022/03/03 02:50:26;;;;;;;;;1.50;0.00;18.00;99.90;;;;;;5051929;28;9891;-57
2022/03/03 02:53:02;;;;;;;;;0.00;0.00;17.90;99.90;;;;;;5046322;28;9842;-56
2022/03/03 02:55:32;;;;;;;;;0.00;0.00;17.90;99.90;;;;;;5055425;28;9862;-56
2022/03/03 02:58:05;;;;;;;;;0.00;0.00;17.90;99.90;;;;;;5044721;28;9918;-58
2022/03/03 03:00:42;;;;;;;;;0.00;0.00;17.90;99.90;;;;;;5048840;28;10512;-57
2022/03/03 03:03:18;;;;;;;;;1.00;0.00;17.80;99.90;;;;;;5049675;28;9940;-57
2022/03/03 03:05:48;;;;;;;;;0.00;0.00;17.80;99.90;;;;;;5052970;28;10012;-58
2022/03/03 03:08:19;;;;;;;;;0.00;0.00;17.80;99.90;;;;;;5047613;28;10100;-57
2022/03/03 03:10:50;;;;;;;;;0.00;0.00;17.80;99.90;;;;;;5050703;28;10075;-58
2022/03/03 03:13:22;;;;;;;;;0.00;0.00;17.80;99.90;;;;;;5045417;28;10002;-58
2022/03/03 03:15:54;;;;;;;;;0.00;0.00;17.70;99.90;;;;;;5047377;28;9920;-58
2022/03/03 03:18:25;;;;;;;;;0.00;0.00;17.60;99.90;;;;;;5047840;28;10104;-58
2022/03/03 03:20:55;;;;;;;;;0.00;0.00;17.50;99.90;;;;;;5046995;28;10566;-57
2022/03/03 03:23:27;;;;;;;;;0.00;0.00;17.50;99.90;;;;;;5052644;28;11957;-57
2022/03/03 03:25:58;;;;;;;;;0.25;0.25;17.60;99.90;;;;;;5053049;28;10089;-57
2022/03/03 03:28:29;;;;;;;;;0.00;0.00;17.50;99.90;;;;;;5057077;28;10216;-57
2022/03/03 03:30:59;;;;;;;;;0.50;0.50;17.50;99.90;;;;;;5051458;28;10285;-57
2022/03/03 03:33:31;;;;;;;;;1.00;1.00;17.50;99.90;;;;;;5066175;28;10202;-58
2022/03/03 03:36:01;;;;;;;;;0.75;0.75;17.50;99.90;;;;;;5052552;28;11219;-56
2022/03/03 03:38:31;;;;;;;;;1.50;1.00;17.50;99.90;;;;;;5054302;28;10432;-58
2022/03/03 03:41:03;;;;;;;;;1.25;1.25;17.50;99.90;;;;;;5049388;28;10577;-57
2022/03/03 03:43:35;;;;;;;;;2.00;2.00;17.50;99.90;;;;;;5056054;28;11197;-58
2022/03/03 03:46:05;;;;;;;;;2.00;2.00;17.50;99.90;;;;;;5048585;28;10495;-56
2022/03/03 03:48:36;;;;;;;;;2.00;2.00;17.40;99.90;;;;;;5055864;28;10485;-57
2022/03/03 03:51:06;;;;;;;;;3.75;3.75;17.40;99.90;;;;;;5050558;28;10556;-57
2022/03/03 03:53:37;;;;;;;;;4.25;4.25;17.40;99.90;;;;;;5050141;28;10490;-57
2022/03/03 03:56:08;;;;;;;;;6.00;6.00;17.30;99.90;;;;;;5048281;28;10531;-57
2022/03/03 03:58:39;;;;;;;;;6.75;6.75;17.30;99.90;;;;;;5054178;28;10528;-57
2022/03/03 04:01:10;;;;;;;;;6.25;6.25;17.30;99.90;;;;;;5061616;28;10681;-55
2022/03/03 04:03:40;;;;;;;;;5.75;5.75;17.20;99.90;;;;;;5054703;28;10875;-58
2022/03/03 04:06:11;;;;;;;;;2.75;2.75;17.20;99.90;;;;;;5049807;28;10655;-57
2022/03/03 04:08:42;;;;;;;;;1.25;1.25;17.20;99.90;;;;;;5048001;28;10594;-56
2022/03/03 04:11:13;;;;;;;;;0.00;0.00;17.20;99.90;;;;;;5055143;28;10441;-56
2022/03/03 04:13:43;;;;;;;;;0.00;0.00;17.20;99.90;;;;;;5054409;28;10275;-57
2022/03/03 04:16:16;;;;;;;;;0.00;0.00;17.10;99.90;;;;;;5044152;28;10318;-57
2022/03/03 04:18:47;;;;;;;;;0.75;0.75;17.10;99.90;;;;;;5036038;28;10322;-57
2022/03/03 04:21:19;;;;;;;;;1.75;1.00;17.10;99.90;;;;;;5056102;28;10224;-56
2022/03/03 04:23:50;;;;;;;;;0.00;0.00;17.00;99.90;;;;;;5051866;28;10223;-57
2022/03/03 04:26:24;;;;;;;;;0.00;0.00;17.00;99.90;;;;;;5057339;28;10243;-58
2022/03/03 04:28:56;;;;;;;;;1.00;1.00;17.00;99.90;;;;;;5060593;28;10280;-57
2022/03/03 04:31:27;;;;;;;;;0.50;0.50;16.90;99.90;;;;;;5055379;28;10999;-58
2022/03/03 04:33:58;;;;;;;;;1.00;1.00;16.90;99.90;;;;;;5047785;28;10230;-58
2022/03/03 04:36:30;;;;;;;;;1.00;1.00;16.90;99.90;;;;;;5051681;28;10286;-58
2022/03/03 04:39:01;;;;;;;;;1.75;1.75;16.90;99.90;;;;;;5054881;28;10995;-56
2022/03/03 04:41:32;;;;;;;;;1.00;1.00;16.90;99.90;;;;;;5052954;28;10380;-56
2022/03/03 04:44:02;;;;;;;;;1.00;1.00;16.80;99.90;;;;;;5042694;28;10318;-55
2022/03/03 04:46:33;;;;;;;;;1.00;1.00;16.80;99.90;;;;;;5047513;28;10466;-58
2022/03/03 04:49:08;;;;;;;;;0.25;0.25;16.80;99.90;;;;;;5052982;28;10337;-57
2022/03/03 04:51:40;;;;;;;;;1.00;1.00;16.80;99.90;;;;;;5045478;28;10294;-58
2022/03/03 04:54:11;;;;;;;;;1.00;0.00;16.80;99.90;;;;;;5047496;28;10257;-57
2022/03/03 04:56:43;;;;;;;;;0.00;0.00;16.80;99.90;;;;;;5048528;28;10531;-58
2022/03/03 04:59:15;;;;;;;;;0.25;0.25;16.70;99.90;;;;;;5050847;28;10092;-57
2022/03/03 05:01:47;;;;;;;;;0.00;0.00;16.70;99.90;;;;;;5049783;28;10265;-59
2022/03/03 05:04:19;;;;;;;;;1.00;1.00;16.70;99.90;;;;;;5053929;28;10379;-58
2022/03/03 05:06:51;;;;;;;;;2.00;1.75;16.60;99.90;;;;;;5053943;28;11227;-58
2022/03/03 05:09:22;;;;;;;;;1.00;1.00;16.60;99.90;;;;;;5052865;28;10511;-60
2022/03/03 05:11:53;;;;;;;;;0.00;0.00;16.50;99.90;;;;;;5047829;28;10550;-57
2022/03/03 05:14:24;;;;;;;;;1.75;1.00;16.50;99.90;;;;;;5053301;28;11024;-58
2022/03/03 05:16:56;;;;;;;;;2.50;1.50;16.60;99.90;;;;;;5047599;28;10503;-59
2022/03/03 05:19:27;;;;;;;;;1.00;1.00;16.50;99.90;;;;;;5052186;28;10511;-57
2022/03/03 05:21:57;;;;;;;;;1.00;1.00;16.50;99.90;;;;;;5046415;28;10309;-57
2022/03/03 05:24:28;;;;;;;;;1.00;1.00;16.50;99.90;;;;;;5045702;28;10364;-58
2022/03/03 05:26:58;;;;;;;;;0.00;0.00;16.40;99.90;;;;;;5049494;28;10518;-57
2022/03/03 05:29:29;;;;;;;;;1.00;1.00;16.40;99.90;;;;;;5052342;28;10445;-57
2022/03/03 05:32:00;;;;;;;;;0.50;0.50;16.40;99.90;;;;;;5046513;28;10506;-57
2022/03/03 05:34:35;;;;;;;;;1.00;1.00;16.40;99.90;;;;;;5047050;28;10613;-57
2022/03/03 05:37:06;;;;;;;;;1.50;0.50;16.40;99.90;;;;;;5053101;28;10531;-58
2022/03/03 05:39:42;;;;;;;;;0.75;0.00;16.40;99.90;;;;;;5045202;28;10623;-58
2022/03/03 05:42:18;;;;;;;;;0.00;0.00;16.40;99.90;;;;;;5044861;28;10516;-58
2022/03/03 05:44:49;;;;;;;;;1.00;1.00;16.30;99.90;;;;;;5046560;28;10877;-58
2022/03/03 05:47:20;;;;;;;;;0.00;0.00;16.30;99.90;;;;;;5050826;28;10434;-57
2022/03/03 05:49:54;;;;;;;;;0.50;0.50;16.30;99.90;;;;;;5048639;28;10509;-59
2022/03/03 05:52:26;;;;;;;;;1.25;1.25;16.30;99.90;;;;;;5043907;28;10508;-59
2022/03/03 05:54:56;;;;;;;;;1.00;1.00;16.20;99.90;;;;;;5044571;28;10738;-58
2022/03/03 05:57:32;;;;;;;;;0.75;0.75;16.20;99.90;;;;;;5048509;28;10722;-58
2022/03/03 06:00:13;;;;;;;;;1.00;1.00;16.20;99.90;;;;;;5046111;28;10770;-57
2022/03/03 06:02:52;;;;;;;;;1.00;1.00;16.20;99.90;;;;;;5051566;28;10518;-58
2022/03/03 06:05:28;;;;;;;;;1.00;1.00;16.10;99.90;;;;;;5050153;28;10883;-57
2022/03/03 06:08:06;;;;;;;;;2.00;2.00;16.10;99.90;;;;;;5046600;28;10754;-58
2022/03/03 06:10:51;;;;;;;;;3.00;1.00;16.10;99.90;;;;;;5047485;28;10803;-58
2022/03/03 06:13:28;;;;;;;;;1.25;0.50;16.10;99.90;;;;;;5049072;28;10737;-57
2022/03/03 06:15:59;;;;;;;;;1.75;1.75;16.00;99.90;;;;;;5043870;28;10680;-57
2022/03/03 06:18:32;;;;;;;;;0.50;0.50;16.00;99.90;;;;;;5048278;28;10777;-58
2022/03/03 06:21:04;;;;;;;;;1.00;1.00;15.90;99.90;;;;;;5051419;28;10820;-57
2022/03/03 06:23:35;;;;;;;;;2.00;2.00;15.90;99.90;;;;;;5044812;28;10801;-57
2022/03/03 06:26:11;;;;;;;;;1.75;1.75;15.90;99.90;;;;;;5051618;28;10871;-58
2022/03/03 06:28:41;;;;;;;;;2.00;0.50;15.80;99.90;;;;;;5053923;28;11068;-57
2022/03/03 06:31:13;;;;;;;;;1.75;1.75;15.80;99.90;;;;;;5047207;28;10771;-58
2022/03/03 06:33:44;;;;;;;;;1.00;1.00;15.80;99.90;;;;;;5051109;28;10872;-56
2022/03/03 06:36:16;;;;;;;;;1.75;0.00;15.80;99.90;;;;;;5050434;28;11606;-58
2022/03/03 06:38:47;;;;;;;;;0.75;0.75;15.80;99.90;;;;;;5055414;28;10936;-58
2022/03/03 06:41:19;;;;;;;;;4.75;3.00;15.80;99.90;;;;;;5048151;28;10808;-56
2022/03/03 06:43:50;;;;;;;;;0.00;0.00;15.70;99.90;;;;;;5049017;28;11411;-58
2022/03/03 06:46:21;;;;;;;;;2.00;2.00;15.70;99.90;;;;;;5049188;28;11024;-57
2022/03/03 06:48:53;;;;;;;;;2.00;2.00;15.70;99.90;;;;;;5056452;28;11158;-57
2022/03/03 06:51:34;;;;;;;;;1.00;1.00;15.70;99.90;;;;;;5051459;28;11114;-56
2022/03/03 06:54:06;;;;;;;;;1.00;1.00;15.60;99.90;;;;;;5049001;28;10980;-56
2022/03/03 06:56:47;;;;;;;;;1.00;1.00;15.60;99.90;;;;;;5052325;28;11131;-56
2022/03/03 06:59:23;;;;;;;;;1.00;1.00;15.60;99.90;;;;;;5048494;28;11132;-57
2022/03/03 07:01:55;;;;;;;;;2.75;2.75;15.60;99.90;;;;;;5052290;28;11028;-58
2022/03/03 07:04:29;;;;;;;;;1.00;1.00;15.50;99.90;;;;;;5050809;28;11107;-57
2022/03/03 07:07:00;;;;;;;;;1.00;1.00;15.50;99.90;;;;;;5051742;28;10894;-57
2022/03/03 07:09:32;;;;;;;;;1.00;1.00;15.50;99.90;;;;;;5047420;28;11194;-58
2022/03/03 07:12:03;;;;;;;;;1.25;1.25;15.40;99.90;;;;;;5047521;28;10806;-57
2022/03/03 07:14:33;;;;;;;;;1.00;1.00;15.40;99.90;;;;;;5050405;28;11100;-57
2022/03/03 07:17:18;;;;;;;;;1.00;1.00;15.40;99.90;;;;;;5050445;28;11058;-57
2022/03/03 07:20:06;;;;;;;;;2.00;2.00;15.30;99.90;;;;;;5051201;28;11148;-57
2022/03/03 07:22:41;;;;;;;;;3.25;2.00;15.30;99.90;;;;;;5045707;28;11147;-56
2022/03/03 07:25:17;;;;;;;;;2.75;1.00;15.30;99.90;;;;;;5050866;28;11445;-57
2022/03/03 07:27:50;;;;;;;;;3.00;1.00;15.30;99.90;;;;;;5049893;28;11185;-57
2022/03/03 07:30:20;;;;;;;;;2.00;2.00;15.20;99.90;;;;;;5046271;28;11214;-57
2022/03/03 07:33:06;;;;;;;;;1.00;1.00;15.20;99.90;;;;;;5053690;28;11175;-57
2022/03/03 07:35:36;;;;;;;;;2.00;2.00;15.20;99.90;;;;;;5051752;28;11132;-56
2022/03/03 07:38:19;;;;;;;;;2.00;2.00;15.10;99.90;;;;;;5052987;28;12194;-57
2022/03/03 07:40:49;;;;;;;;;1.25;1.25;15.10;99.90;;;;;;5046292;28;11211;-58
2022/03/03 07:43:22;;;;;;;;;1.75;1.75;15.10;99.90;;;;;;5050063;28;11499;-57
2022/03/03 07:45:52;;;;;;;;;1.50;1.50;15.00;99.90;;;;;;5050423;28;11204;-56
2022/03/03 07:48:25;;;;;;;;;2.00;2.00;15.00;99.90;;;;;;5051739;28;11421;-55
2022/03/03 07:50:59;;;;;;;;;2.00;2.00;14.90;99.90;;;;;;5048124;28;11468;-55
2022/03/03 07:53:29;;;;;;;;;2.75;2.75;14.90;99.90;;;;;;5051103;28;11464;-57
2022/03/03 07:56:04;;;;;;;;;2.00;2.00;14.90;99.90;;;;;;5048486;28;11468;-56
2022/03/03 07:58:42;;;;;;;;;2.00;2.00;14.90;99.90;;;;;;5045769;28;12343;-57
2022/03/03 08:01:18;;;;;;;;;2.75;2.00;14.80;99.90;;;;;;5050012;28;11484;-57
2022/03/03 08:03:50;;;;;;;;;2.25;2.25;14.80;99.90;;;;;;5051876;28;11500;-58
2022/03/03 08:06:22;;;;;;;;;2.00;2.00;14.80;99.90;;;;;;5053506;28;11452;-59
2022/03/03 08:08:56;;;;;;;;;2.00;2.00;14.70;99.90;;;;;;5055885;28;12319;-56
2022/03/03 08:11:28;;;;;;;;;3.00;2.25;14.80;99.90;;;;;;5058897;28;11441;-58
2022/03/03 08:13:59;;;;;;;;;4.00;4.00;14.70;99.90;;;;;;5053526;28;11509;-57
2022/03/03 08:16:30;;;;;;;;;2.00;2.00;14.60;99.90;;;;;;5051405;28;11481;-58
2022/03/03 08:19:04;;;;;;;;;2.00;2.00;14.60;99.90;;;;;;5054283;28;11461;-56
2022/03/03 08:21:36;;;;;;;;;3.00;3.00;14.60;99.90;;;;;;5056493;28;11470;-57
2022/03/03 08:24:10;;;;;;;;;2.00;2.00;14.60;99.90;;;;;;5056565;28;11436;-56
2022/03/03 08:26:42;;;;;;;;;0.00;0.00;14.50;99.90;;;;;;5053624;28;12171;-56
2022/03/03 08:29:15;;;;;;;;;2.00;2.00;14.50;99.90;;;;;;5053407;28;11433;-58
2022/03/03 08:31:54;;;;;;;;;2.50;2.50;14.50;99.90;;;;;;5056601;28;11446;-57
2022/03/03 08:34:29;;;;;;;;;1.00;1.00;14.40;99.90;;;;;;5049785;28;11756;-58
2022/03/03 08:37:03;;;;;;;;;3.25;3.25;14.40;99.90;;;;;;5054977;28;11449;-57
2022/03/03 08:39:38;;;;;;;;;4.00;2.00;14.30;99.90;;;;;;5052988;28;12370;-56
2022/03/03 08:42:13;;;;;;;;;3.00;3.00;14.30;99.90;;;;;;5054068;28;11422;-56
2022/03/03 08:44:53;;;;;;;;;5.00;5.00;14.20;99.90;;;;;;5053994;28;11421;-58
2022/03/03 08:47:25;;;;;;;;;4.00;4.00;14.20;99.90;;;;;;5046672;28;11507;-58
2022/03/03 08:50:01;;;;;;;;;3.75;3.75;14.20;99.90;;;;;;5052338;28;11501;-58
2022/03/03 08:52:52;;;;;;;;;2.00;2.00;14.20;99.90;;;;;;5051042;28;11467;-59
2022/03/03 08:55:23;;;;;;;;;4.25;2.75;14.20;99.90;;;;;;5047414;28;11473;-58
2022/03/03 08:57:54;;;;;;;;;3.00;3.00;14.20;99.90;;;;;;5047101;28;11485;-56
2022/03/03 09:00:28;;;;;;;;;3.50;3.50;14.10;99.90;;;;;;5044836;28;11467;-58
2022/03/03 09:03:00;;;;;;;;;3.25;3.25;14.10;99.90;;;;;;5052697;28;11543;-58
2022/03/03 09:05:32;;;;;;;;;1.75;1.75;14.10;99.90;;;;;;5051006;28;11470;-57
2022/03/03 09:08:02;;;;;;;;;4.25;4.25;14.00;99.90;;;;;;5051602;28;11438;-57
2022/03/03 09:10:34;;;;;;;;;5.00;4.00;14.00;99.90;;;;;;5054470;28;12237;-57
2022/03/03 09:13:04;;;;;;;;;3.75;3.75;14.00;99.90;;;;;;5057423;28;11460;-57
2022/03/03 09:15:37;;;;;;;;;4.00;4.00;14.00;99.90;;;;;;5049560;28;12423;-58
2022/03/03 09:18:08;;;;;;;;;3.00;3.00;14.00;99.90;;;;;;5060215;28;11463;-58
2022/03/03 09:20:38;;;;;;;;;3.75;3.75;13.90;99.90;;;;;;5049507;28;11490;-58
2022/03/03 09:23:09;;;;;;;;;4.00;4.00;13.90;99.90;;;;;;5057826;28;11447;-57
2022/03/03 09:25:41;;;;;;;;;4.50;4.50;13.90;99.90;;;;;;5044548;28;11464;-57
2022/03/03 09:28:11;;;;;;;;;4.00;4.00;13.80;99.90;;;;;;5053945;28;11442;-59
2022/03/03 09:30:49;;;;;;;;;2.00;2.00;13.80;99.90;;;;;;5047757;28;11482;-57
2022/03/03 09:33:19;;;;;;;;;4.00;2.00;13.80;99.90;;;;;;5049745;28;11545;-56
2022/03/03 09:35:53;;;;;;;;;3.50;3.50;13.80;99.90;;;;;;5048677;28;12161;-57
2022/03/03 09:38:24;;;;;;;;;4.50;4.50;13.70;99.90;;;;;;5053646;28;11445;-56
2022/03/03 09:40:55;;;;;;;;;2.75;2.75;13.70;99.90;;;;;;5049160;28;11505;-57
2022/03/03 09:43:29;;;;;;;;;3.25;3.25;13.70;99.90;;;;;;5051667;28;11485;-58
2022/03/03 09:46:00;;;;;;;;;4.75;4.00;13.60;99.90;;;;;;5049488;28;11566;-58
2022/03/03 09:48:33;;;;;;;;;3.00;3.00;13.60;99.90;;;;;;5053012;28;12197;-58
2022/03/03 09:51:04;;;;;;;;;4.25;4.25;13.60;99.90;;;;;;5051310;28;11450;-57
2022/03/03 09:53:39;;;;;;;;;3.00;3.00;13.60;99.90;;;;;;5052234;28;12254;-57
2022/03/03 09:56:10;;;;;;;;;0.00;0.00;13.60;99.90;;;;;;5048177;28;11486;-56
2022/03/03 09:58:40;;;;;;;;;2.00;2.00;13.50;99.90;;;;;;5049948;28;11455;-57
2022/03/03 10:01:11;;;;;;;;;3.00;3.00;13.50;99.90;;;;;;5051715;28;11442;-57
2022/03/03 10:03:47;;;;;;;;;4.75;4.00;13.50;99.90;;;;;;5056279;28;11492;-58
2022/03/03 10:06:22;;;;;;;;;4.50;4.00;13.40;99.90;;;;;;5054872;28;12206;-56
2022/03/03 10:08:53;;;;;;;;;4.50;3.00;13.40;99.90;;;;;;5055701;28;12331;-56
2022/03/03 10:11:23;;;;;;;;;2.00;2.00;13.40;99.90;;;;;;5061508;28;11682;-56
2022/03/03 10:13:54;;;;;;;;;4.00;2.00;13.40;99.90;;;;;;5056154;28;11456;-58
2022/03/03 10:16:31;;;;;;;;;2.50;2.50;13.30;99.90;;;;;;5054485;28;11537;-58
2022/03/03 10:19:04;;;;;;;;;3.00;3.00;13.30;99.90;;;;;;5058063;28;11508;-59
2022/03/03 10:21:38;;;;;;;;;3.00;3.00;13.30;99.90;;;;;;5058626;28;11513;-59
2022/03/03 10:24:26;;;;;;;;;2.00;2.00;13.30;99.90;;;;;;5047682;28;11479;-59
2022/03/03 10:27:18;;;;;;;;;1.00;1.00;13.30;99.90;;;;;;5055703;28;11453;-57
2022/03/03 10:29:53;;;;;;;;;1.00;1.00;13.30;99.90;;;;;;5060424;28;12411;-57
2022/03/03 10:32:24;;;;;;;;;3.50;3.50;13.20;99.90;;;;;;5055653;28;11533;-57
2022/03/03 10:35:12;;;;;;;;;3.00;3.00;13.10;99.90;;;;;;5057092;28;11503;-56
2022/03/03 10:37:44;;;;;;;;;3.00;3.00;13.10;99.90;;;;;;5052202;28;11426;-58
2022/03/03 10:40:17;;;;;;;;;3.00;3.00;13.00;99.90;;;;;;5056569;28;11519;-59
2022/03/03 10:42:50;;;;;;;;;2.00;2.00;13.10;99.90;;;;;;5052797;28;11558;-57
2022/03/03 10:45:22;;;;;;;;;2.00;2.00;13.10;99.90;;;;;;5053586;28;11560;-57
2022/03/03 10:48:04;;;;;;;;;2.00;2.00;13.10;99.90;;;;;;5052463;28;12277;-55
2022/03/03 10:50:51;;;;;;;;;3.00;3.00;13.10;99.90;;;;;;5047500;28;11501;-58
2022/03/03 10:53:23;;;;;;;;;2.75;2.75;13.10;99.90;;;;;;5052751;28;11508;-58
2022/03/03 10:56:14;;;;;;;;;1.00;1.00;13.00;99.90;;;;;;5052144;28;11505;-59
2022/03/03 10:58:46;;;;;;;;;2.00;2.00;13.00;99.90;;;;;;5053523;28;11608;-57
2022/03/03 11:01:23;;;;;;;;;0.25;0.25;13.00;99.90;;;;;;5056966;28;12345;-59
2022/03/03 11:03:54;;;;;;;;;3.50;3.50;13.00;99.90;;;;;;5053567;28;11527;-54
2022/03/03 11:06:30;;;;;;;;;2.00;2.00;12.90;99.90;;;;;;5053747;28;11532;-57
2022/03/03 11:09:00;;;;;;;;;2.00;2.00;12.90;99.90;;;;;;5052317;28;11550;-58
2022/03/03 11:11:32;;;;;;;;;1.00;1.00;12.90;99.90;;;;;;5058212;28;11501;-55
2022/03/03 11:14:06;;;;;;;;;2.25;2.25;12.90;99.90;;;;;;5050622;28;11472;-56
2022/03/03 11:16:36;;;;;;;;;2.75;1.75;12.90;99.90;;;;;;5054019;28;11506;-56
2022/03/03 11:19:16;;;;;;;;;2.00;2.00;12.90;99.90;;;;;;5049200;28;11498;-58
2022/03/03 11:21:47;;;;;;;;;1.00;1.00;12.90;99.90;;;;;;5052930;28;11510;-58
2022/03/03 11:24:19;;;;;;;;;2.25;2.25;12.80;99.90;;;;;;5058765;28;11476;-56
2022/03/03 11:26:51;;;;;;;;;2.00;2.00;12.80;99.90;;;;;;5052963;28;11565;-56
2022/03/03 11:29:22;;;;;;;;;0.00;0.00;12.80;99.90;;;;;;5049442;28;11495;-56
2022/03/03 11:32:23;;;;;;;;;2.00;2.00;12.90;99.90;;;;;;5045160;28;11429;-56
2022/03/03 11:35:07;;;;;;;;;2.00;2.00;12.90;99.90;;;;;;5050048;28;12110;-56
2022/03/03 11:37:48;;;;;;;;;2.25;2.25;12.80;99.90;;;;;;5054197;28;11445;-58
2022/03/03 11:40:19;;;;;;;;;1.25;1.25;12.70;99.90;;;;;;5056284;28;11457;-58
2022/03/03 11:42:50;;;;;;;;;2.00;2.00;12.80;99.90;;;;;;5052070;28;12214;-58
2022/03/03 11:45:34;;;;;;;;;1.00;1.00;12.80;99.90;;;;;;5054513;28;11514;-58
2022/03/03 11:48:15;;;;;;;;;2.00;2.00;12.80;99.90;;;;;;5050402;28;11510;-57
2022/03/03 11:50:45;;;;;;;;;2.00;1.75;12.80;99.90;;;;;;5051921;28;11900;-56
2022/03/03 11:53:21;;;;;;;;;2.75;2.75;12.80;99.90;;;;;;5051485;28;11492;-56
2022/03/03 11:56:03;;;;;;;;;2.50;2.50;12.70;99.90;;;;;;5048682;28;12240;-56
2022/03/03 11:58:40;;;;;;;;;2.00;2.00;12.70;99.90;;;;;;5053986;28;11538;-59
2022/03/03 12:01:14;;;;;;;;;2.00;2.00;12.60;99.90;;;;;;5052064;28;11510;-57
2022/03/03 12:04:07;;;;;;;;;2.00;2.00;12.60;99.90;;;;;;5051243;28;12255;-57
2022/03/03 12:06:43;;;;;;;;;1.00;1.00;12.60;99.90;;;;;;5051946;28;11574;-57
2022/03/03 12:09:26;;;;;;;;;3.00;1.00;12.60;99.90;;;;;;5058703;28;11536;-59
2022/03/03 12:12:11;;;;;;;;;2.00;2.00;12.60;99.90;;;;;;5050110;28;12310;-56
2022/03/03 12:15:00;;;;;;;;;2.50;2.50;12.60;99.90;;;;;;5039998;28;12256;-57
2022/03/03 12:17:56;;;;;;;;;2.00;2.00;12.70;99.90;;;;;;5057774;28;11505;-55
2022/03/03 12:20:31;;;;;;;;;2.75;2.75;12.70;99.90;;;;;;5049559;28;12357;-56
2022/03/03 12:23:35;;;;;;;;;3.00;3.00;12.70;99.90;;;;;;5055957;28;11513;-58
2022/03/03 12:26:07;;;;;;;;;4.00;4.00;12.70;99.90;;;;;;5053730;28;11542;-57
2022/03/03 12:28:47;;;;;;;;;3.50;3.50;12.70;99.90;;;;;;5055040;28;11515;-56
2022/03/03 12:31:30;;;;;;;;;2.00;2.00;12.60;99.90;;;;;;5050043;28;11557;-57
2022/03/03 12:34:03;;;;;;;;;5.00;3.25;12.70;99.90;;;;;;5045281;28;11540;-58
2022/03/03 12:36:36;;;;;;;;;4.00;4.00;12.70;99.90;;;;;;5054451;28;11581;-56
2022/03/03 12:39:08;;;;;;;;;3.00;3.00;12.60;99.90;;;;;;5049792;28;11567;-58
2022/03/03 12:41:40;;;;;;;;;3.00;3.00;12.70;99.90;;;;;;5050667;28;11430;-58
2022/03/03 12:44:13;;;;;;;;;6.00;5.00;12.70;99.90;;;;;;5054058;28;12308;-58
2022/03/03 12:46:45;;;;;;;;;6.00;6.00;12.70;99.90;;;;;;5050239;28;11539;-58
2022/03/03 12:49:17;;;;;;;;;3.50;3.50;12.60;99.90;;;;;;5045414;28;12366;-57
2022/03/03 12:51:49;;;;;;;;;6.00;4.50;12.60;99.90;;;;;;5054792;28;11488;-56
2022/03/03 12:54:20;;;;;;;;;4.00;4.00;12.60;99.90;;;;;;5049080;28;11498;-57
2022/03/03 12:57:05;;;;;;;;;4.25;4.25;12.70;99.90;;;;;;5055407;28;12147;-58
2022/03/03 12:59:35;;;;;;;;;2.00;2.00;12.60;99.90;;;;;;5047222;28;12289;-57
2022/03/03 13:02:05;;;;;;;;;5.00;3.50;12.60;99.90;;;;;;5054544;28;12305;-59
2022/03/03 13:04:46;;;;;;;;;4.00;4.00;12.60;99.90;;;;;;5052749;28;11523;-57
2022/03/03 13:07:17;;;;;;;;;4.25;4.25;12.60;99.90;;;;;;5053088;28;11548;-58
2022/03/03 13:09:58;;;;;;;;;2.00;2.00;12.70;99.90;;;;;;5051800;28;11527;-56
2022/03/03 13:12:45;;;;;;;;;2.00;2.00;12.60;99.90;;;;;;5052000;28;11512;-56
2022/03/03 13:15:16;;;;;;;;;2.75;2.75;12.60;99.90;;;;;;5055408;28;11496;-58
2022/03/03 13:18:02;;;;;;;;;3.00;3.00;12.60;99.90;;;;;;5051885;28;11501;-58
2022/03/03 13:20:37;;;;;;;;;3.00;3.00;12.60;99.90;;;;;;5046285;28;12325;-54
2022/03/03 13:23:16;;;;;;;;;3.00;3.00;12.60;99.90;;;;;;5055209;28;11509;-57
2022/03/03 13:25:46;;;;;;;;;4.50;4.00;12.60;99.90;;;;;;5043467;28;11506;-57